Lake Fork, Idaho
Current Conditions -  °F | °C
As of 2:51 PM on Friday 28 Nov 2014 (Local Time) from KMYL Reporting Station
Overcast Overcast  
Wind Chill: 36°   Ceiling: 6000
Heat Index: 42°   Visibility: 10mi
Dew Point: 24°   Wind: 10mph
Humidity: 49%   Direction: 160°SSE
Pressure: 29.7"   Gusts: NA
Location:  44.83°N, 116.09°W
Report Text: KMYL 282151Z AUTO 16009KT 10SM OVC060 06/M04 A2970 RMK AO2 PK WND 18038/2115 SLP060 T00561044
Loading
Personal Weather Stations






























Interactive Weather Map New forecast layout! Learn more

10-Day Weather Forecast

Advertisements
Track Severe Weather on mobile